createdAt,value
2019-03-26T00:00:00.392Z,1.60
2019-03-26T00:02:28.845Z,1.33
2019-03-26T00:04:57.382Z,2.40
2019-03-26T00:07:25.883Z,1.93
2019-03-26T00:09:54.353Z,1.47
2019-03-26T00:12:22.771Z,1.70
2019-03-26T00:14:51.187Z,1.33
2019-03-26T00:17:19.651Z,2.00
2019-03-26T00:19:48.138Z,1.83
2019-03-26T00:22:16.595Z,2.20
2019-03-26T00:24:45.074Z,1.33
2019-03-26T00:27:13.563Z,2.00
2019-03-26T00:29:42.042Z,1.87
2019-03-26T00:32:10.548Z,1.17
2019-03-26T00:34:39.013Z,1.77
2019-03-26T00:37:07.511Z,1.67
2019-03-26T00:39:35.945Z,2.33
2019-03-26T00:42:05.044Z,2.00
2019-03-26T00:44:33.466Z,2.10
2019-03-26T00:47:01.911Z,2.67
2019-03-26T00:49:30.328Z,2.80
2019-03-26T00:51:58.763Z,1.87
2019-03-26T00:54:27.194Z,1.93
2019-03-26T00:56:55.654Z,2.43
2019-03-26T00:59:24.175Z,1.50
2019-03-26T01:01:52.714Z,1.70
2019-03-26T01:04:32.216Z,2.30
2019-03-26T01:06:51.403Z,1.83
2019-03-26T01:09:19.833Z,1.97
2019-03-26T01:11:48.314Z,1.87
2019-03-26T01:14:16.741Z,1.73
2019-03-26T01:16:45.164Z,3.33
2019-03-26T01:19:13.687Z,2.83
2019-03-26T01:21:42.116Z,2.10
2019-03-26T01:24:10.618Z,2.53
2019-03-26T01:26:39.068Z,2.10
2019-03-26T01:29:07.516Z,2.37
2019-03-26T01:31:35.971Z,3.10
2019-03-26T01:34:04.497Z,2.40
2019-03-26T01:36:32.972Z,2.43
2019-03-26T01:39:01.397Z,2.10
2019-03-26T01:41:29.856Z,1.60
2019-03-26T01:43:58.280Z,1.90
2019-03-26T01:46:26.741Z,3.50
2019-03-26T01:48:55.161Z,2.07
2019-03-26T01:51:23.612Z,2.23
2019-03-26T01:53:52.063Z,2.00
2019-03-26T01:56:20.488Z,2.00
2019-03-26T01:58:48.908Z,2.13
2019-03-26T02:01:17.363Z,2.30
2019-03-26T02:03:45.778Z,2.17
2019-03-26T02:06:14.244Z,2.50
2019-03-26T02:08:42.665Z,2.87
2019-03-26T02:11:11.115Z,2.10
2019-03-26T02:13:39.546Z,1.97
2019-03-26T02:16:08.007Z,2.03
2019-03-26T02:18:36.439Z,2.30
2019-03-26T02:21:04.956Z,2.90
2019-03-26T02:23:33.422Z,2.63
2019-03-26T02:26:01.855Z,2.10
2019-03-26T02:28:30.316Z,2.33
2019-03-26T02:30:58.751Z,2.23
2019-03-26T02:33:27.205Z,2.10
2019-03-26T02:35:55.661Z,1.93
2019-03-26T02:38:24.101Z,2.90
2019-03-26T02:40:52.523Z,1.90
2019-03-26T02:43:20.988Z,2.40
2019-03-26T02:45:49.493Z,2.00
2019-03-26T02:48:18.032Z,2.90
2019-03-26T02:50:46.460Z,2.63
2019-03-26T02:53:14.982Z,2.10
2019-03-26T02:55:43.399Z,2.30
2019-03-26T02:58:11.858Z,2.63
2019-03-26T03:00:40.287Z,2.07
2019-03-26T03:03:08.711Z,1.30
2019-03-26T03:05:37.161Z,2.80
2019-03-26T03:08:05.750Z,2.13
2019-03-26T03:10:34.193Z,2.03
2019-03-26T03:13:02.730Z,2.67
2019-03-26T03:15:31.507Z,2.73
2019-03-26T03:18:00.374Z,2.40
2019-03-26T03:20:28.781Z,2.70
2019-03-26T03:22:57.307Z,2.80
2019-03-26T03:25:25.724Z,2.93
2019-03-26T03:27:54.185Z,1.20
2019-03-26T03:30:22.680Z,2.93
2019-03-26T03:32:51.184Z,1.83
2019-03-26T03:35:19.604Z,2.33
2019-03-26T03:37:48.065Z,2.60
2019-03-26T03:40:16.565Z,3.40
2019-03-26T03:42:45.003Z,2.40
2019-03-26T03:45:15.299Z,2.13
2019-03-26T03:47:44.390Z,2.40
2019-03-26T03:50:13.206Z,2.20
2019-03-26T03:52:41.800Z,2.90
2019-03-26T03:55:10.972Z,2.70
2019-03-26T03:57:40.435Z,3.60
2019-03-26T04:00:21.160Z,3.37
2019-03-26T04:06:09.068Z,2.40
2019-03-26T04:08:27.938Z,3.43
2019-03-26T04:10:56.471Z,2.50
2019-03-26T04:13:24.992Z,3.73
2019-03-26T04:15:53.408Z,2.90
2019-03-26T04:18:21.868Z,3.07
2019-03-26T04:20:50.291Z,2.40
2019-03-26T04:23:18.736Z,3.03
2019-03-26T04:25:47.162Z,2.90
2019-03-26T04:28:15.616Z,2.43
2019-03-26T04:30:44.091Z,2.53
2019-03-26T04:33:12.587Z,3.00
2019-03-26T04:35:41.099Z,2.83
2019-03-26T04:38:09.532Z,4.70
2019-03-26T04:43:32.796Z,2.50
2019-03-26T04:46:01.216Z,2.67
2019-03-26T04:48:29.650Z,2.10
2019-03-26T04:50:58.105Z,3.10
2019-03-26T04:53:26.539Z,2.47
2019-03-26T04:55:55.059Z,2.90
2019-03-26T04:58:23.524Z,2.60
2019-03-26T05:00:51.957Z,2.73
2019-03-26T05:03:20.470Z,3.03
2019-03-26T05:05:48.885Z,4.33
2019-03-26T05:08:17.331Z,2.93
2019-03-26T05:10:45.789Z,3.13
2019-03-26T05:13:14.207Z,2.30
2019-03-26T05:15:42.656Z,2.30
2019-03-26T05:18:11.080Z,3.17
2019-03-26T05:20:39.536Z,2.73
2019-03-26T05:23:07.956Z,2.37
2019-03-26T05:25:36.434Z,2.10
2019-03-26T05:28:04.888Z,5.27
2019-03-26T05:30:33.395Z,2.60
2019-03-26T05:33:01.847Z,2.70
2019-03-26T05:35:30.306Z,3.17
2019-03-26T05:37:58.724Z,4.27
2019-03-26T05:40:27.179Z,3.60
2019-03-26T05:42:55.648Z,3.23
2019-03-26T05:45:24.068Z,3.13
2019-03-26T05:47:52.524Z,2.90
2019-03-26T05:50:21.015Z,4.60
2019-03-26T05:52:49.440Z,3.30
2019-03-26T05:55:17.887Z,2.33
2019-03-26T05:57:46.304Z,3.40
2019-03-26T06:00:16.725Z,2.20
2019-03-26T06:02:45.207Z,0.90
2019-03-26T06:08:09.029Z,3.50
2019-03-26T06:10:37.482Z,2.27
2019-03-26T06:13:25.242Z,2.60
2019-03-26T06:15:53.692Z,1.67
2019-03-26T06:18:22.131Z,2.23
2019-03-26T06:20:50.548Z,3.83
2019-03-26T06:23:18.996Z,3.43
2019-03-26T06:25:47.491Z,2.77
2019-03-26T06:28:15.939Z,2.50
2019-03-26T06:30:44.364Z,2.43
2019-03-26T06:33:12.815Z,2.50
2019-03-26T06:35:41.227Z,3.20
2019-03-26T06:38:09.675Z,2.13
2019-03-26T06:40:38.112Z,3.53
2019-03-26T06:43:06.559Z,1.70
2019-03-26T06:45:34.988Z,2.87
2019-03-26T06:48:04.535Z,2.67
2019-03-26T06:50:33.217Z,2.33
2019-03-26T06:53:01.739Z,2.20
2019-03-26T06:55:30.152Z,3.10
2019-03-26T06:57:58.595Z,3.67
2019-03-26T07:00:32.679Z,2.33
2019-03-26T07:03:02.473Z,1.87
2019-03-26T07:05:30.920Z,2.37
2019-03-26T07:07:59.440Z,2.20
2019-03-26T07:10:29.687Z,1.90
2019-03-26T07:12:58.849Z,1.70
2019-03-26T07:15:27.343Z,2.57
2019-03-26T07:17:55.856Z,3.13
2019-03-26T07:20:25.223Z,1.97
2019-03-26T07:22:53.715Z,2.87
2019-03-26T07:25:22.253Z,1.10
2019-03-26T07:27:50.667Z,1.90
2019-03-26T07:30:38.299Z,2.93
2019-03-26T07:33:06.896Z,2.10
2019-03-26T07:35:35.384Z,3.10
2019-03-26T07:38:03.876Z,1.77
2019-03-26T07:40:32.398Z,2.90
2019-03-26T07:43:00.820Z,2.37
2019-03-26T07:45:29.304Z,2.90
2019-03-26T07:47:57.713Z,2.03
2019-03-26T07:50:26.276Z,3.83
2019-03-26T07:52:54.900Z,2.27
2019-03-26T07:55:23.307Z,2.60
2019-03-26T07:57:51.734Z,1.70
2019-03-26T08:00:23.259Z,2.10
2019-03-26T08:02:51.671Z,2.30
2019-03-26T08:05:29.265Z,1.83
2019-03-26T08:07:58.315Z,2.10
2019-03-26T08:10:20.465Z,1.27
2019-03-26T08:12:48.896Z,2.40
2019-03-26T08:15:20.179Z,2.83
2019-03-26T08:17:47.520Z,1.80
2019-03-26T08:20:16.039Z,2.40
2019-03-26T08:22:44.567Z,2.20
2019-03-26T08:25:13.179Z,2.40
2019-03-26T08:27:41.743Z,1.40
2019-03-26T08:30:10.431Z,1.33
2019-03-26T08:32:38.855Z,2.80
2019-03-26T08:35:07.403Z,2.50
2019-03-26T08:37:35.848Z,3.10
2019-03-26T08:40:07.832Z,1.83
2019-03-26T08:42:36.267Z,3.10
2019-03-26T08:45:09.425Z,3.00
2019-03-26T08:47:37.840Z,1.83
2019-03-26T09:02:32.943Z,3.27
2019-03-26T09:05:01.372Z,3.00
2019-03-26T09:07:29.978Z,2.93
2019-03-26T09:09:58.392Z,3.40
2019-03-26T09:12:26.975Z,2.13
2019-03-26T09:14:55.383Z,2.50
2019-03-26T09:17:24.940Z,4.50
2019-03-26T09:19:53.460Z,2.63
2019-03-26T09:22:21.887Z,3.10
2019-03-26T09:24:50.334Z,2.10
2019-03-26T09:27:18.768Z,2.30
2019-03-26T09:29:47.282Z,1.77
2019-03-26T09:32:15.699Z,2.43
2019-03-26T09:34:44.147Z,3.80
2019-03-26T09:37:12.569Z,3.27
2019-03-26T09:39:41.001Z,2.23
2019-03-26T09:42:09.907Z,2.80
2019-03-26T09:44:38.388Z,2.97
2019-03-26T09:47:16.053Z,2.13
2019-03-26T09:49:37.678Z,2.40
2019-03-26T09:52:06.141Z,2.70
2019-03-26T09:54:36.582Z,2.53
2019-03-26T09:57:05.153Z,1.50
2019-03-26T09:59:33.748Z,2.07
2019-03-26T10:02:02.215Z,2.93
2019-03-26T10:04:30.671Z,3.23
2019-03-26T10:06:59.088Z,2.70
2019-03-26T10:09:27.525Z,3.73
2019-03-26T10:11:55.937Z,2.17
2019-03-26T10:14:24.452Z,2.20
2019-03-26T10:16:53.034Z,1.30
2019-03-26T10:19:22.559Z,2.70
2019-03-26T10:21:51.465Z,2.67
2019-03-26T10:24:21.834Z,3.30
2019-03-26T10:26:51.934Z,2.27
2019-03-26T10:29:30.065Z,1.73
2019-03-26T10:31:51.113Z,3.00
2019-03-26T10:34:19.810Z,1.83
2019-03-26T10:36:49.280Z,2.00
2019-03-26T10:39:17.834Z,4.20
2019-03-26T10:41:46.454Z,2.93
2019-03-26T10:44:14.886Z,2.40
2019-03-26T10:46:44.665Z,2.00
2019-03-26T10:49:13.567Z,3.53
2019-03-26T10:51:42.087Z,2.27
2019-03-26T10:54:11.870Z,2.77
2019-03-26T10:56:40.542Z,1.33
2019-03-26T10:59:09.261Z,2.93
2019-03-26T11:01:37.738Z,2.30
2019-03-26T11:04:07.807Z,2.57
2019-03-26T11:06:36.637Z,2.23
2019-03-26T11:09:20.042Z,2.10
2019-03-26T11:11:36.626Z,2.13
2019-03-26T11:14:05.122Z,4.13
2019-03-26T11:16:33.688Z,1.73
2019-03-26T11:19:02.126Z,2.00
2019-03-26T11:21:30.626Z,1.20
2019-03-26T11:23:59.067Z,2.20
2019-03-26T11:26:27.473Z,2.30
2019-03-26T11:28:55.999Z,2.10
2019-03-26T11:31:24.481Z,1.83
2019-03-26T11:33:52.945Z,2.47
2019-03-26T11:36:21.551Z,1.77
2019-03-26T11:38:50.066Z,2.50
2019-03-26T11:41:18.474Z,2.30
2019-03-26T11:43:46.908Z,1.90
2019-03-26T11:46:15.359Z,2.40
2019-03-26T11:48:43.778Z,1.47
2019-03-26T11:51:12.193Z,1.57
2019-03-26T11:53:40.621Z,1.90
2019-03-26T11:56:09.039Z,2.40
2019-03-26T11:58:37.477Z,1.90
2019-03-26T12:01:05.971Z,1.83
2019-03-26T12:03:34.389Z,1.70
2019-03-26T12:06:02.804Z,3.00
2019-03-26T12:08:31.591Z,1.77
2019-03-26T12:11:00.070Z,2.50
2019-03-26T12:13:28.504Z,3.00
2019-03-26T12:15:56.919Z,1.60
2019-03-26T12:18:25.388Z,3.00
2019-03-26T12:20:53.934Z,2.50
2019-03-26T12:23:22.440Z,2.30
2019-03-26T12:25:50.855Z,2.60
2019-03-26T12:28:19.286Z,2.57
2019-03-26T12:30:47.696Z,2.30
2019-03-26T12:33:16.133Z,2.47
2019-03-26T12:35:44.585Z,2.50
2019-03-26T12:38:17.599Z,2.47
2019-03-26T12:40:46.350Z,2.30
2019-03-26T12:43:14.837Z,1.80
2019-03-26T12:45:43.697Z,2.40
2019-03-26T12:48:12.258Z,2.53
2019-03-26T12:55:58.833Z,2.00
2019-03-26T12:58:32.130Z,2.37
2019-03-26T13:00:58.741Z,2.27
2019-03-26T13:03:27.361Z,2.33
2019-03-26T13:05:55.820Z,11.50
2019-03-26T13:08:24.287Z,2.77
2019-03-26T13:10:54.088Z,2.43
2019-03-26T13:13:22.927Z,3.40
2019-03-26T13:15:51.379Z,2.90
2019-03-26T13:18:19.817Z,3.40
2019-03-26T13:20:48.329Z,1.90
2019-03-26T13:23:16.747Z,2.30
2019-03-26T13:25:45.163Z,6.50
2019-03-26T13:28:13.723Z,3.40
2019-03-26T13:31:01.816Z,2.47
2019-03-26T13:33:30.371Z,1.80
2019-03-26T13:35:58.810Z,2.70
2019-03-26T13:38:27.268Z,3.03
2019-03-26T13:40:56.890Z,3.20
2019-03-26T13:43:25.351Z,2.43
2019-03-26T13:46:03.052Z,3.30
2019-03-26T13:48:33.085Z,3.67
2019-03-26T13:51:02.975Z,3.43
2019-03-26T13:53:51.583Z,2.63
2019-03-26T13:56:22.381Z,1.80
2019-03-26T13:58:51.574Z,3.10
2019-03-26T14:01:21.116Z,2.23
2019-03-26T14:03:49.832Z,2.77
2019-03-26T14:06:18.295Z,3.50
2019-03-26T14:08:47.723Z,3.93
2019-03-26T14:11:23.824Z,3.33
2019-03-26T14:13:52.379Z,2.70
2019-03-26T14:16:21.214Z,2.43
2019-03-26T14:18:50.856Z,5.00
2019-03-26T14:21:19.948Z,4.70
2019-03-26T14:23:51.171Z,2.57
2019-03-26T14:26:22.224Z,3.23
2019-03-26T14:28:53.014Z,3.10
2019-03-26T14:31:21.454Z,2.77
2019-03-26T14:33:49.924Z,4.10
2019-03-26T14:36:18.368Z,2.20
2019-03-26T14:38:49.300Z,2.17
2019-03-26T14:41:20.311Z,3.87
2019-03-26T14:43:49.407Z,2.93
2019-03-26T14:46:19.059Z,3.33
2019-03-26T14:48:49.427Z,3.10
2019-03-26T14:51:18.493Z,3.03
2019-03-26T14:53:49.112Z,3.13
2019-03-26T14:56:19.908Z,2.37
2019-03-26T14:58:50.966Z,2.87
2019-03-26T15:01:24.576Z,2.87
2019-03-26T15:03:53.443Z,3.13
2019-03-26T15:06:23.540Z,2.40
2019-03-26T15:08:55.220Z,2.90
2019-03-26T15:11:27.035Z,2.60
2019-03-26T15:14:01.265Z,2.80
2019-03-26T15:16:32.495Z,3.27
2019-03-26T15:19:02.772Z,3.00
2019-03-26T15:21:34.111Z,3.23
2019-03-26T15:24:06.804Z,2.70
2019-03-26T15:26:35.247Z,3.00
2019-03-26T15:29:03.675Z,3.93
2019-03-26T15:31:32.169Z,2.73
2019-03-26T15:34:00.611Z,2.83
2019-03-26T15:36:29.058Z,2.23
2019-03-26T15:38:57.577Z,2.97
2019-03-26T15:41:26.103Z,2.77
2019-03-26T15:43:54.535Z,1.73
2019-03-26T15:46:23.020Z,2.47
2019-03-26T15:48:51.471Z,2.13
2019-03-26T15:51:19.961Z,2.00
2019-03-26T15:53:48.415Z,2.03
2019-03-26T15:56:16.907Z,2.90
2019-03-26T15:58:45.360Z,2.20
2019-03-26T16:01:13.868Z,2.43
2019-03-26T16:03:42.335Z,2.70
2019-03-26T16:06:10.842Z,3.00
2019-03-26T16:08:39.279Z,2.30
2019-03-26T16:11:07.772Z,2.97
2019-03-26T16:13:36.224Z,3.40
2019-03-26T16:16:04.891Z,2.83
2019-03-26T16:18:33.343Z,2.70
2019-03-26T16:21:01.772Z,2.83
2019-03-26T16:23:30.366Z,2.80
2019-03-26T16:25:58.859Z,2.63
2019-03-26T16:28:27.283Z,2.73
2019-03-26T16:30:55.736Z,2.67
2019-03-26T16:33:24.177Z,2.40
2019-03-26T16:35:52.634Z,2.20
2019-03-26T16:38:21.064Z,2.20
2019-03-26T16:40:49.475Z,2.10
2019-03-26T16:43:18.028Z,2.30
2019-03-26T16:45:46.524Z,2.33
2019-03-26T16:48:15.032Z,2.20
2019-03-26T16:50:43.464Z,3.23
2019-03-26T16:53:11.897Z,3.00
2019-03-26T16:55:40.330Z,2.13
2019-03-26T16:58:08.759Z,2.53
2019-03-26T17:00:37.280Z,2.60
2019-03-26T17:03:06.052Z,3.67
2019-03-26T17:05:34.546Z,3.57
2019-03-26T17:08:03.107Z,4.83
2019-03-26T17:10:31.551Z,3.57
2019-03-26T17:12:59.969Z,4.00
2019-03-26T17:15:28.681Z,5.03
2019-03-26T17:18:16.446Z,3.90
2019-03-26T17:20:45.871Z,3.30
2019-03-26T17:23:19.636Z,3.73
2019-03-26T17:25:55.685Z,3.10
2019-03-26T17:28:25.131Z,3.20
2019-03-26T17:30:53.950Z,3.30
2019-03-26T17:33:22.387Z,3.00
2019-03-26T17:35:51.952Z,3.43
2019-03-26T17:38:20.811Z,4.13
2019-03-26T17:40:52.740Z,3.33
2019-03-26T17:43:22.290Z,5.47
2019-03-26T17:45:50.946Z,4.60
2019-03-26T17:48:21.049Z,5.33
2019-03-26T17:50:50.947Z,4.47
2019-03-26T17:53:20.001Z,5.73
2019-03-26T17:55:55.445Z,5.47
2019-03-26T17:58:26.975Z,4.80
2019-03-26T18:00:57.285Z,4.93
2019-03-26T18:03:27.006Z,6.23
2019-03-26T18:05:57.139Z,4.77
2019-03-26T18:08:25.866Z,5.73
2019-03-26T18:10:55.963Z,5.50
2019-03-26T18:13:43.977Z,5.70
2019-03-26T18:16:12.596Z,6.10
2019-03-26T18:18:41.936Z,5.30
2019-03-26T18:21:14.099Z,4.60
2019-03-26T18:23:42.740Z,6.17
2019-03-26T18:26:11.965Z,5.53
2019-03-26T18:28:40.900Z,6.83
2019-03-26T18:31:09.531Z,5.53
2019-03-26T18:33:38.010Z,6.40
2019-03-26T18:36:06.537Z,5.53
2019-03-26T18:38:35.052Z,7.00
2019-03-26T18:41:08.373Z,5.30
2019-03-26T18:43:37.967Z,5.53
2019-03-26T18:46:07.464Z,5.80
2019-03-26T18:48:36.115Z,5.90
2019-03-26T18:51:04.951Z,5.27
2019-03-26T18:53:33.579Z,7.80
2019-03-26T18:56:04.707Z,5.57
2019-03-26T18:58:33.264Z,6.03
2019-03-26T19:01:02.697Z,6.17
2019-03-26T19:03:35.721Z,6.60
2019-03-26T19:06:04.414Z,6.17
2019-03-26T19:08:34.596Z,6.13
2019-03-26T19:11:07.345Z,6.30
2019-03-26T19:13:35.970Z,6.73
2019-03-26T19:16:04.425Z,6.50
2019-03-26T19:18:32.886Z,6.33
2019-03-26T19:21:02.730Z,7.83
2019-03-26T19:23:32.362Z,6.60
2019-03-26T19:26:01.059Z,6.40
2019-03-26T19:28:29.540Z,5.83
2019-03-26T19:30:59.617Z,6.30
2019-03-26T19:33:31.883Z,6.50
2019-03-26T19:36:01.439Z,6.70
2019-03-26T19:38:31.272Z,6.60
2019-03-26T19:41:01.021Z,6.53
2019-03-26T19:43:30.786Z,6.90
2019-03-26T19:46:01.725Z,6.93
2019-03-26T19:48:32.565Z,8.23
2019-03-26T19:51:01.773Z,8.33
2019-03-26T19:53:30.803Z,7.40
2019-03-26T19:56:00.146Z,7.30
2019-03-26T19:58:33.001Z,6.10
2019-03-26T20:01:02.963Z,6.40
2019-03-26T20:03:31.988Z,6.27
2019-03-26T20:06:12.738Z,6.70
2019-03-26T20:08:32.423Z,6.70
2019-03-26T20:11:01.533Z,5.90
2019-03-26T20:13:30.841Z,6.80
2019-03-26T20:15:59.462Z,7.63
2019-03-26T20:18:27.952Z,6.10
2019-03-26T20:20:56.726Z,7.37
2019-03-26T20:23:25.275Z,7.07
2019-03-26T20:25:54.116Z,6.80
2019-03-26T20:28:22.783Z,6.50
2019-03-26T20:30:51.542Z,5.90
2019-03-26T20:33:20.738Z,7.27
2019-03-26T20:35:49.251Z,7.47
2019-03-26T20:38:18.314Z,6.80
2019-03-26T20:40:46.857Z,7.00
2019-03-26T20:43:15.366Z,7.70
2019-03-26T20:45:44.135Z,8.00
2019-03-26T20:48:13.010Z,7.47
2019-03-26T20:50:42.129Z,7.20
2019-03-26T20:53:10.586Z,8.23
2019-03-26T20:55:39.135Z,7.20
2019-03-26T20:58:07.852Z,6.77
2019-03-26T21:00:41.264Z,6.40
2019-03-26T21:03:10.171Z,6.53
2019-03-26T21:05:38.868Z,5.50
2019-03-26T21:08:07.490Z,5.70
2019-03-26T21:10:37.986Z,5.23
2019-03-26T21:13:06.703Z,6.60
2019-03-26T21:15:35.327Z,6.40
2019-03-26T21:18:04.124Z,6.03
2019-03-26T21:20:32.579Z,5.40
2019-03-26T21:23:01.047Z,6.13
2019-03-26T21:25:29.509Z,5.83
2019-03-26T21:27:57.947Z,6.40
2019-03-26T21:30:26.374Z,6.97
2019-03-26T21:32:54.819Z,6.50
2019-03-26T21:35:23.245Z,8.50
2019-03-26T21:37:51.710Z,6.70
2019-03-26T21:40:21.655Z,7.67
2019-03-26T21:42:50.067Z,5.73
2019-03-26T21:45:21.585Z,6.33
2019-03-26T21:48:32.373Z,6.53
2019-03-26T21:51:00.791Z,7.07
2019-03-26T21:53:29.241Z,7.37
2019-03-26T21:56:06.224Z,6.53
2019-03-26T21:58:27.846Z,7.27
2019-03-26T22:00:56.327Z,6.00
2019-03-26T22:03:24.779Z,6.57
2019-03-26T22:05:53.200Z,5.10
2019-03-26T22:08:21.642Z,6.83
2019-03-26T22:10:50.131Z,5.87
2019-03-26T22:13:18.583Z,8.50
2019-03-26T22:15:46.999Z,7.53
2019-03-26T22:18:15.600Z,6.70
2019-03-26T22:20:44.018Z,7.37
2019-03-26T22:23:12.585Z,7.80
2019-03-26T22:25:41.371Z,8.50
2019-03-26T22:28:09.893Z,6.40
2019-03-26T22:30:57.675Z,6.93
2019-03-26T22:33:26.100Z,6.80
2019-03-26T22:35:56.008Z,7.57
2019-03-26T22:38:24.849Z,6.53
2019-03-26T22:40:53.291Z,7.80
2019-03-26T22:43:21.737Z,7.83
2019-03-26T22:45:50.410Z,8.43
2019-03-26T22:48:18.828Z,8.30
2019-03-26T22:50:47.249Z,8.97
2019-03-26T22:53:15.683Z,8.43
2019-03-26T22:55:44.103Z,8.33
2019-03-26T22:58:12.559Z,8.77
2019-03-26T23:00:41.113Z,8.93
2019-03-26T23:03:09.552Z,8.60
2019-03-26T23:05:38.136Z,9.13
2019-03-26T23:08:06.583Z,8.57
2019-03-26T23:10:35.094Z,9.20
2019-03-26T23:13:03.537Z,7.47
2019-03-26T23:15:32.056Z,8.47
2019-03-26T23:18:00.479Z,10.43
2019-03-26T23:20:28.927Z,10.53
2019-03-26T23:22:57.377Z,7.77
2019-03-26T23:25:25.828Z,8.87
2019-03-26T23:27:54.428Z,8.37
2019-03-26T23:30:42.203Z,9.70
2019-03-26T23:33:11.093Z,9.83
2019-03-26T23:35:39.546Z,9.77
2019-03-26T23:38:07.989Z,8.70
2019-03-26T23:40:36.407Z,10.00
2019-03-26T23:43:04.867Z,9.53
2019-03-26T23:45:33.438Z,9.90
2019-03-26T23:48:01.890Z,8.97
2019-03-26T23:50:30.340Z,10.50
2019-03-26T23:52:58.780Z,9.27
2019-03-26T23:55:27.292Z,10.33
2019-03-26T23:57:55.761Z,12.07
